ROMMA est une association bénévole à but non lucratif. Votre soutien est indispensable : ADHERER à ROMMA ou FAIRE un DON

Eygliers - (05, Hautes-Alpes)

Guillestrois (965 m)   Longitude: 6° 38' 04" E   Latitude: 44° 40' 37" N Station partenaire n°53
 

Détail journalier du     <<     >>

Température Precipitation Humidité Vent Dir Rafale Dir. rafale Ensol.
Heure (°C) (mm) (%) (km/h) (km/h) (min) (°C)
01:00 4.705712N34NNO0
02:00 4.805615NNO35NNO0
03:00 4.705414NNO40NNO0
04:00 4.205617NNO40NNO0
05:00 4.405013NNO35NO0
06:00 3.50528NE24NE0
07:00 2.90556NNE18ESE0
08:00 2.80538ESE21S0
09:00 3.80526N21NO15
10:00 5.60476E16E600.0
11:00 6.904314NNO32NNO600.0
12:00 8.203721NNO39NNO600.0
13:00 9.103421NO39NNO600.0
14:00 9.503519NO34NNO600.0
15:00 9.503420NO37NNO600.0
16:00 8.203714NO26NNO60
17:00 5.90467NNO21N25
18:00 3.90495ESE18ENE0
19:00 2.70525SE16ESE0
20:00 1.30593S8ESE0
21:00 0.20643NNE10NE0
22:00 -0.30671NNE5NNE0
23:00 -1.30721NNE5NNE0
minuit -2.20752NNE8NNE0

Graphique du 18-11-2018

 

Serveur OMMA